createdAt,value
2018-11-13T00:00:01.088Z,18
2018-11-13T00:01:01.089Z,15
2018-11-13T00:02:01.099Z,14
2018-11-13T00:05:01.120Z,16
2018-11-13T00:06:01.089Z,17
2018-11-13T00:07:01.836Z,18
2018-11-13T00:08:01.123Z,17
2018-11-13T00:09:01.089Z,16
2018-11-13T00:11:01.227Z,15
2018-11-13T00:12:01.096Z,14
2018-11-13T00:13:01.125Z,15
2018-11-13T00:15:01.094Z,15
2018-11-13T00:16:01.092Z,14
2018-11-13T00:19:01.120Z,17
2018-11-13T00:20:01.093Z,18
2018-11-13T00:21:01.100Z,19
2018-11-13T00:22:01.092Z,20
2018-11-13T00:24:01.272Z,17
2018-11-13T00:25:01.095Z,18
2018-11-13T00:29:02.207Z,20
2018-11-13T00:30:01.092Z,17
2018-11-13T00:31:01.100Z,16
2018-11-13T00:34:01.093Z,15
2018-11-13T00:35:01.129Z,16
2018-11-13T00:37:01.760Z,15
2018-11-13T00:39:01.143Z,14
2018-11-13T00:41:01.193Z,16
2018-11-13T00:42:01.093Z,19
2018-11-13T00:44:01.096Z,21
2018-11-13T00:45:01.131Z,21
2018-11-13T00:46:01.265Z,19
2018-11-13T00:47:01.097Z,18
2018-11-13T00:48:01.137Z,19
2018-11-13T00:49:01.492Z,17
2018-11-13T00:50:01.100Z,19
2018-11-13T00:51:01.100Z,18
2018-11-13T00:52:01.095Z,17
2018-11-13T00:53:01.141Z,16
2018-11-13T00:58:01.134Z,17
2018-11-13T01:00:01.094Z,16
2018-11-13T01:01:01.096Z,15
2018-11-13T01:02:01.103Z,16
2018-11-13T01:03:01.133Z,15
2018-11-13T01:04:01.098Z,14
2018-11-13T01:06:01.094Z,17
2018-11-13T01:09:01.100Z,18
2018-11-13T01:10:01.096Z,17
2018-11-13T01:11:01.118Z,16
2018-11-13T01:12:01.096Z,15
2018-11-13T01:14:01.127Z,14
2018-11-13T01:15:01.138Z,15
2018-11-13T01:19:01.157Z,14
2018-11-13T01:21:01.364Z,13
2018-11-13T01:23:01.100Z,14
2018-11-13T01:24:01.363Z,15
2018-11-13T01:26:01.968Z,16
2018-11-13T01:27:01.098Z,15
2018-11-13T01:29:01.126Z,16
2018-11-13T01:30:01.098Z,16
2018-11-13T01:31:01.099Z,15
2018-11-13T01:33:01.098Z,14
2018-11-13T01:34:01.129Z,13
2018-11-13T01:35:01.099Z,16
2018-11-13T01:36:01.099Z,17
2018-11-13T01:37:01.105Z,16
2018-11-13T01:38:01.186Z,17
2018-11-13T01:40:01.128Z,14
2018-11-13T01:41:01.101Z,15
2018-11-13T01:42:01.854Z,17
2018-11-13T01:43:01.095Z,19
2018-11-13T01:44:01.129Z,21
2018-11-13T01:45:01.097Z,22
2018-11-13T01:48:01.193Z,20
2018-11-13T01:49:01.096Z,19
2018-11-13T01:51:01.203Z,17
2018-11-13T01:56:02.166Z,18
2018-11-13T01:57:01.153Z,17
2018-11-13T02:00:01.100Z,16
2018-11-13T02:01:01.142Z,15
2018-11-13T02:02:01.101Z,13
2018-11-13T02:04:01.102Z,14
2018-11-13T02:05:01.098Z,16
2018-11-13T02:06:01.149Z,18
2018-11-13T02:07:01.099Z,20
2018-11-13T02:10:01.163Z,18
2018-11-13T02:11:01.146Z,17
2018-11-13T02:13:01.096Z,18
2018-11-13T02:14:01.104Z,17
2018-11-13T02:15:01.099Z,17
2018-11-13T02:16:01.140Z,18
2018-11-13T02:21:01.336Z,16
2018-11-13T02:24:01.103Z,15
2018-11-13T02:25:01.101Z,14
2018-11-13T02:29:01.099Z,13
2018-11-13T02:30:01.103Z,15
2018-11-13T02:32:01.128Z,16
2018-11-13T02:33:01.116Z,17
2018-11-13T02:34:01.097Z,16
2018-11-13T02:35:01.098Z,15
2018-11-13T02:37:01.132Z,14
2018-11-13T02:39:01.098Z,16
2018-11-13T02:41:01.161Z,17
2018-11-13T02:42:01.140Z,18
2018-11-13T02:44:01.100Z,20
2018-11-13T02:45:01.099Z,21
2018-11-13T02:46:01.103Z,20
2018-11-13T02:47:01.141Z,17
2018-11-13T02:49:01.100Z,15
2018-11-13T02:50:01.101Z,16
2018-11-13T02:51:01.100Z,19
2018-11-13T02:53:01.120Z,21
2018-11-13T02:54:01.090Z,20
2018-11-13T02:55:01.088Z,21
2018-11-13T02:56:01.619Z,19
2018-11-13T02:57:01.086Z,17
2018-11-13T03:00:01.151Z,18
2018-11-13T03:01:01.118Z,20
2018-11-13T03:02:01.087Z,19
2018-11-13T03:05:01.082Z,16
2018-11-13T03:06:01.132Z,14
2018-11-13T03:08:01.086Z,15
2018-11-13T03:10:01.235Z,16
2018-11-13T03:11:01.124Z,17
2018-11-13T03:13:01.083Z,15
2018-11-13T03:15:01.088Z,14
2018-11-13T03:18:01.115Z,16
2018-11-13T03:19:01.084Z,17
2018-11-13T03:20:01.185Z,18
2018-11-13T03:21:01.083Z,17
2018-11-13T03:22:01.120Z,18
2018-11-13T03:23:01.091Z,17
2018-11-13T03:24:01.088Z,15
2018-11-13T03:25:01.083Z,17
2018-11-13T03:26:01.085Z,20
2018-11-13T03:30:01.150Z,19
2018-11-13T03:31:01.138Z,16
2018-11-13T03:32:02.025Z,15
2018-11-13T03:33:01.082Z,14
2018-11-13T03:36:01.086Z,16
2018-11-13T03:44:01.120Z,15
2018-11-13T03:45:01.081Z,14
2018-11-13T03:46:01.115Z,13
2018-11-13T03:47:01.082Z,14
2018-11-13T03:48:01.086Z,15
2018-11-13T03:50:01.149Z,17
2018-11-13T03:51:01.140Z,15
2018-11-13T03:52:01.082Z,16
2018-11-13T03:54:01.085Z,15
2018-11-13T03:55:01.083Z,14
2018-11-13T03:56:01.113Z,16
2018-11-13T04:00:01.147Z,17
2018-11-13T04:01:01.115Z,16
2018-11-13T04:03:01.114Z,15
2018-11-13T04:04:01.088Z,16
2018-11-13T04:06:01.082Z,15
2018-11-13T04:07:01.081Z,16
2018-11-13T04:08:01.111Z,18
2018-11-13T04:09:01.081Z,16
2018-11-13T04:10:01.094Z,14
2018-11-13T04:12:01.116Z,12
2018-11-13T04:15:01.085Z,12
2018-11-13T04:18:01.135Z,14
2018-11-13T04:19:01.091Z,16
2018-11-13T04:20:01.085Z,17
2018-11-13T04:22:01.085Z,18
2018-11-13T04:23:01.085Z,17
2018-11-13T04:24:01.094Z,16
2018-11-13T04:25:01.083Z,17
2018-11-13T04:30:01.219Z,18
2018-11-13T04:31:01.119Z,19
2018-11-13T04:35:01.089Z,18
2018-11-13T04:36:01.128Z,19
2018-11-13T04:39:01.089Z,18
2018-11-13T04:40:01.090Z,17
2018-11-13T04:41:01.095Z,15
2018-11-13T04:43:01.123Z,14
2018-11-13T04:44:01.090Z,13
2018-11-13T04:45:01.089Z,14
2018-11-13T04:49:01.119Z,16
2018-11-13T04:51:01.572Z,17
2018-11-13T04:53:01.126Z,16
2018-11-13T04:54:01.093Z,17
2018-11-13T04:57:01.092Z,18
2018-11-13T04:59:01.310Z,17
2018-11-13T05:00:01.091Z,15
2018-11-13T05:02:01.089Z,14
2018-11-13T05:04:02.169Z,17
2018-11-13T05:06:01.090Z,18
2018-11-13T05:07:01.089Z,17
2018-11-13T05:08:01.098Z,19
2018-11-13T05:09:01.151Z,18
2018-11-13T05:10:01.253Z,19
2018-11-13T05:11:01.088Z,18
2018-11-13T05:12:01.097Z,19
2018-11-13T05:13:01.089Z,18
2018-11-13T05:14:01.095Z,17
2018-11-13T05:15:01.128Z,17
2018-11-13T05:16:01.089Z,16
2018-11-13T05:17:01.159Z,17
2018-11-13T05:19:01.090Z,18
2018-11-13T05:21:01.247Z,16
2018-11-13T05:22:01.091Z,15
2018-11-13T05:24:01.097Z,14
2018-11-13T05:25:01.143Z,15
2018-11-13T05:26:01.092Z,18
2018-11-13T05:27:01.089Z,20
2018-11-13T05:28:01.091Z,19
2018-11-13T05:30:01.095Z,19
2018-11-13T05:31:01.160Z,16
2018-11-13T05:32:01.092Z,14
2018-11-13T05:33:01.093Z,15
2018-11-13T05:34:01.097Z,14
2018-11-13T05:35:01.091Z,15
2018-11-13T05:36:01.132Z,17
2018-11-13T05:37:01.096Z,18
2018-11-13T05:39:01.093Z,19
2018-11-13T05:42:01.127Z,17
2018-11-13T05:43:01.091Z,15
2018-11-13T05:44:01.099Z,14
2018-11-13T05:45:01.095Z,13
2018-11-13T05:46:01.125Z,12
2018-11-13T05:47:01.104Z,14
2018-11-13T05:48:01.095Z,17
2018-11-13T05:49:01.091Z,18
2018-11-13T05:51:01.193Z,17
2018-11-13T05:53:01.098Z,15
2018-11-13T05:56:01.096Z,16
2018-11-13T05:57:06.105Z,17
2018-11-13T05:59:01.102Z,15
2018-11-13T06:00:01.158Z,15
2018-11-13T06:01:01.093Z,14
2018-11-13T06:02:01.095Z,13
2018-11-13T06:03:01.096Z,15
2018-11-13T06:04:01.098Z,17
2018-11-13T06:06:01.095Z,16
2018-11-13T06:07:01.095Z,15
2018-11-13T06:09:01.099Z,14
2018-11-13T06:12:01.161Z,16
2018-11-13T06:14:01.125Z,17
2018-11-13T06:15:01.140Z,17
2018-11-13T06:16:01.113Z,18
2018-11-13T06:17:01.099Z,17
2018-11-13T06:18:01.108Z,15
2018-11-13T06:20:06.104Z,14
2018-11-13T06:21:01.102Z,13
2018-11-13T06:23:01.191Z,15
2018-11-13T06:24:01.126Z,16
2018-11-13T06:25:01.138Z,17
2018-11-13T06:27:01.106Z,19
2018-11-13T06:28:01.102Z,18
2018-11-13T06:29:01.103Z,16
2018-11-13T06:30:06.111Z,16
2018-11-13T06:31:01.102Z,17
2018-11-13T06:33:01.100Z,21
2018-11-13T06:34:01.100Z,24
2018-11-13T06:35:01.139Z,25
2018-11-13T06:36:01.103Z,26
2018-11-13T06:37:01.107Z,25
2018-11-13T06:38:01.103Z,22
2018-11-13T06:39:01.102Z,20
2018-11-13T06:40:06.110Z,17
2018-11-13T06:41:01.102Z,14
2018-11-13T06:42:01.107Z,17
2018-11-13T06:43:01.105Z,16
2018-11-13T06:44:01.099Z,15
2018-11-13T06:45:01.141Z,15
2018-11-13T06:47:01.097Z,13
2018-11-13T06:48:01.102Z,14
2018-11-13T06:49:01.246Z,16
2018-11-13T06:50:01.133Z,18
2018-11-13T06:51:01.098Z,19
2018-11-13T06:53:01.100Z,18
2018-11-13T06:54:01.099Z,17
2018-11-13T06:55:01.105Z,16
2018-11-13T06:56:01.096Z,13
2018-11-13T06:59:01.097Z,14
2018-11-13T07:00:01.100Z,16
2018-11-13T07:01:01.096Z,18
2018-11-13T07:02:01.137Z,19
2018-11-13T07:03:01.099Z,17
2018-11-13T07:05:01.116Z,16
2018-11-13T07:07:02.074Z,15
2018-11-13T07:08:01.097Z,17
2018-11-13T07:09:01.105Z,15
2018-11-13T07:10:01.096Z,17
2018-11-13T07:11:01.213Z,13
2018-11-13T07:12:01.135Z,15
2018-11-13T07:13:01.101Z,14
2018-11-13T07:14:01.102Z,15
2018-11-13T07:15:01.102Z,14
2018-11-13T07:16:01.097Z,15
2018-11-13T07:17:01.130Z,16
2018-11-13T07:18:01.098Z,15
2018-11-13T07:19:01.252Z,16
2018-11-13T07:21:01.161Z,17
2018-11-13T07:23:01.101Z,18
2018-11-13T07:26:01.097Z,16
2018-11-13T07:30:01.160Z,18
2018-11-13T07:33:01.094Z,19
2018-11-13T07:34:01.119Z,20
2018-11-13T07:35:01.094Z,19
2018-11-13T07:36:01.097Z,17
2018-11-13T07:38:01.097Z,15
2018-11-13T07:39:01.092Z,13
2018-11-13T07:40:01.167Z,12
2018-11-13T07:41:01.109Z,13
2018-11-13T07:42:01.136Z,12
2018-11-13T07:43:01.162Z,14
2018-11-13T07:44:01.095Z,15
2018-11-13T07:45:01.163Z,17
2018-11-13T07:46:01.097Z,18
2018-11-13T07:47:01.220Z,20
2018-11-13T07:48:01.175Z,19
2018-11-13T07:49:01.095Z,18
2018-11-13T07:50:01.094Z,17
2018-11-13T07:51:01.203Z,16
2018-11-13T07:52:01.134Z,14
2018-11-13T07:53:01.316Z,13
2018-11-13T07:54:01.198Z,14
2018-11-13T07:55:01.096Z,15
2018-11-13T07:56:01.098Z,16
2018-11-13T07:58:01.087Z,18
2018-11-13T08:00:01.145Z,20
2018-11-13T08:01:01.095Z,19
2018-11-13T08:02:01.082Z,18
2018-11-13T08:03:01.115Z,17
2018-11-13T08:04:01.082Z,18
2018-11-13T08:05:01.111Z,20
2018-11-13T08:07:01.082Z,21
2018-11-13T08:09:01.085Z,19
2018-11-13T08:10:02.278Z,18
2018-11-13T08:11:01.085Z,17
2018-11-13T08:12:01.083Z,18
2018-11-13T08:13:01.231Z,19
2018-11-13T08:14:01.081Z,18
2018-11-13T08:15:01.082Z,18
2018-11-13T08:16:01.081Z,20
2018-11-13T08:17:01.086Z,19
2018-11-13T08:19:01.085Z,21
2018-11-13T08:22:02.298Z,20
2018-11-13T08:23:01.131Z,18
2018-11-13T08:24:01.082Z,17
2018-11-13T08:25:01.084Z,15
2018-11-13T08:26:01.085Z,13
2018-11-13T08:28:01.124Z,15
2018-11-13T08:29:01.236Z,16
2018-11-13T08:30:01.149Z,16
2018-11-13T08:31:01.091Z,17
2018-11-13T08:32:01.089Z,18
2018-11-13T08:33:01.109Z,16
2018-11-13T08:36:01.085Z,15
2018-11-13T08:37:01.090Z,16
2018-11-13T08:38:01.088Z,17
2018-11-13T08:40:02.025Z,16
2018-11-13T08:41:01.090Z,17
2018-11-13T08:42:01.590Z,15
2018-11-13T08:43:01.087Z,13
2018-11-13T08:45:01.088Z,13
2018-11-13T08:46:01.092Z,12
2018-11-13T08:47:01.088Z,13
2018-11-13T08:48:01.089Z,16
2018-11-13T08:49:01.088Z,17
2018-11-13T08:51:01.154Z,18
2018-11-13T08:53:01.088Z,16
2018-11-13T08:54:02.227Z,15
2018-11-13T08:55:01.097Z,16
2018-11-13T08:56:01.095Z,15
2018-11-13T08:57:01.088Z,14
2018-11-13T08:58:01.090Z,15
2018-11-13T08:59:01.207Z,16
2018-11-13T09:00:01.101Z,15
2018-11-13T09:01:01.131Z,16
2018-11-13T09:02:01.091Z,17
2018-11-13T09:03:01.090Z,18
2018-11-13T09:04:01.106Z,17
2018-11-13T09:05:01.188Z,20
2018-11-13T09:06:01.089Z,19
2018-11-13T09:07:01.095Z,20
2018-11-13T09:08:01.094Z,19
2018-11-13T09:10:01.090Z,16
2018-11-13T09:11:01.092Z,17
2018-11-13T09:12:01.298Z,16
2018-11-13T09:13:01.096Z,18
2018-11-13T09:14:01.098Z,17
2018-11-13T09:15:01.104Z,18
2018-11-13T09:16:01.096Z,19
2018-11-13T09:18:01.156Z,18
2018-11-13T09:20:01.098Z,19
2018-11-13T09:21:01.097Z,16
2018-11-13T09:23:01.100Z,15
2018-11-13T09:24:01.145Z,16
2018-11-13T09:25:01.136Z,15
2018-11-13T09:26:01.098Z,16
2018-11-13T09:27:01.101Z,17
2018-11-13T09:28:01.104Z,18
2018-11-13T09:30:01.155Z,19
2018-11-13T09:32:01.104Z,18
2018-11-13T09:33:01.285Z,17
2018-11-13T09:34:01.100Z,18
2018-11-13T09:35:01.124Z,17
2018-11-13T09:37:01.089Z,16
2018-11-13T09:38:01.092Z,15
2018-11-13T09:39:01.090Z,16
2018-11-13T09:40:01.087Z,15
2018-11-13T09:43:02.031Z,16
2018-11-13T09:44:01.095Z,15
2018-11-13T09:45:01.187Z,15
2018-11-13T09:46:01.229Z,16
2018-11-13T09:47:01.085Z,18
2018-11-13T09:48:01.087Z,17
2018-11-13T09:49:01.088Z,16
2018-11-13T09:50:01.087Z,17
2018-11-13T09:52:01.087Z,18
2018-11-13T09:53:01.091Z,19
2018-11-13T09:54:01.088Z,21
2018-11-13T09:55:01.100Z,19
2018-11-13T09:56:02.023Z,17
2018-11-13T09:58:01.095Z,16
2018-11-13T09:59:01.188Z,15
2018-11-13T10:00:01.123Z,17
2018-11-13T10:01:01.256Z,18
2018-11-13T10:02:01.560Z,16
2018-11-13T10:06:01.115Z,15
2018-11-13T10:10:01.206Z,14
2018-11-13T10:12:01.086Z,15
2018-11-13T10:14:01.087Z,17
2018-11-13T10:15:01.089Z,18
2018-11-13T10:16:01.130Z,20
2018-11-13T10:17:01.113Z,18
2018-11-13T10:18:01.221Z,19
2018-11-13T10:21:01.417Z,18
2018-11-13T10:23:01.088Z,17
2018-11-13T10:24:01.091Z,15
2018-11-13T10:25:01.089Z,14
2018-11-13T10:28:01.090Z,16
2018-11-13T10:29:01.088Z,18
2018-11-13T10:30:01.220Z,18
2018-11-13T10:31:01.120Z,17
2018-11-13T10:33:01.096Z,15
2018-11-13T10:34:01.102Z,14
2018-11-13T10:35:01.094Z,13
2018-11-13T10:36:01.121Z,14
2018-11-13T10:37:01.093Z,15
2018-11-13T10:38:01.095Z,14
2018-11-13T10:39:01.096Z,15
2018-11-13T10:42:01.166Z,16
2018-11-13T10:43:01.091Z,18
2018-11-13T10:44:01.089Z,17
2018-11-13T10:45:01.094Z,18
2018-11-13T10:46:01.120Z,16
2018-11-13T10:48:01.157Z,17
2018-11-13T10:49:01.157Z,16
2018-11-13T10:50:01.104Z,17
2018-11-13T10:53:01.087Z,15
2018-11-13T10:54:01.088Z,16
2018-11-13T10:55:01.091Z,14
2018-11-13T10:57:01.089Z,15
2018-11-13T10:58:01.126Z,16
2018-11-13T10:59:01.094Z,17
2018-11-13T11:00:01.116Z,15
2018-11-13T11:01:01.091Z,16
2018-11-13T11:02:01.098Z,15
2018-11-13T11:03:01.268Z,14
2018-11-13T11:05:01.095Z,16
2018-11-13T11:06:01.091Z,17
2018-11-13T11:07:01.096Z,16
2018-11-13T11:08:01.135Z,15
2018-11-13T11:11:01.219Z,17
2018-11-13T11:12:01.098Z,16
2018-11-13T11:13:01.272Z,17
2018-11-13T11:14:01.442Z,16
2018-11-13T11:15:01.091Z,15
2018-11-13T11:16:01.097Z,13
2018-11-13T11:18:01.151Z,14
2018-11-13T11:19:01.216Z,15
2018-11-13T11:20:01.144Z,16
2018-11-13T11:21:01.097Z,18
2018-11-13T11:22:01.094Z,19
2018-11-13T11:23:01.162Z,20
2018-11-13T11:24:01.108Z,19
2018-11-13T11:25:01.117Z,18
2018-11-13T11:27:01.092Z,17
2018-11-13T11:29:01.094Z,19
2018-11-13T11:30:01.291Z,18
2018-11-13T11:34:01.096Z,16
2018-11-13T11:38:01.133Z,17
2018-11-13T11:39:01.256Z,16
2018-11-13T11:40:01.177Z,17
2018-11-13T11:42:01.098Z,18
2018-11-13T11:45:01.158Z,16
2018-11-13T11:46:01.092Z,15
2018-11-13T11:48:01.095Z,14
2018-11-13T11:50:01.099Z,16
2018-11-13T11:51:01.090Z,18
2018-11-13T11:52:01.096Z,17
2018-11-13T11:53:01.132Z,18
2018-11-13T11:55:01.092Z,20
2018-11-13T11:56:01.093Z,19
2018-11-13T11:57:01.091Z,20
2018-11-13T11:58:01.127Z,16
2018-11-13T11:59:01.105Z,18
2018-11-13T12:00:01.094Z,16
2018-11-13T12:01:01.123Z,15
2018-11-13T12:02:01.099Z,16
2018-11-13T12:03:01.095Z,17
2018-11-13T12:04:01.096Z,16
2018-11-13T12:07:01.126Z,15
2018-11-13T12:09:01.093Z,16
2018-11-13T12:10:01.106Z,17
2018-11-13T12:12:01.097Z,16
2018-11-13T12:13:01.092Z,15
2018-11-13T12:14:01.094Z,16
2018-11-13T12:15:01.095Z,16
2018-11-13T12:16:01.149Z,17
2018-11-13T12:18:02.072Z,18
2018-11-13T12:19:01.211Z,16
2018-11-13T12:21:01.155Z,15
2018-11-13T12:24:01.093Z,16
2018-11-13T12:25:01.094Z,15
2018-11-13T12:27:01.098Z,16
2018-11-13T12:28:01.096Z,17
2018-11-13T12:30:02.087Z,18
2018-11-13T12:32:01.104Z,19
2018-11-13T12:37:01.098Z,18
2018-11-13T12:39:01.095Z,17
2018-11-13T12:40:01.092Z,18
2018-11-13T12:41:01.258Z,17
2018-11-13T12:42:01.152Z,16
2018-11-13T12:44:01.096Z,15
2018-11-13T12:45:01.097Z,13
2018-11-13T12:46:01.137Z,14
2018-11-13T12:47:01.098Z,15
2018-11-13T12:48:01.959Z,14
2018-11-13T12:49:01.293Z,16
2018-11-13T12:51:01.219Z,15
2018-11-13T12:52:01.099Z,16
2018-11-13T12:53:01.120Z,17
2018-11-13T12:55:01.088Z,16
2018-11-13T12:56:01.095Z,17
2018-11-13T12:58:01.090Z,16
2018-11-13T12:59:01.089Z,18
2018-11-13T13:00:01.093Z,18
2018-11-13T13:01:01.085Z,17
2018-11-13T13:04:01.092Z,13
2018-11-13T13:05:01.846Z,15
2018-11-13T13:06:01.086Z,16
2018-11-13T13:08:01.094Z,15
2018-11-13T13:09:01.088Z,18
2018-11-13T13:10:01.094Z,17
2018-11-13T13:14:01.092Z,16
2018-11-13T13:15:01.237Z,15
2018-11-13T13:17:01.089Z,14
2018-11-13T13:18:01.091Z,16
2018-11-13T13:19:01.106Z,15
2018-11-13T13:20:01.089Z,17
2018-11-13T13:22:01.139Z,16
2018-11-13T13:24:01.093Z,15
2018-11-13T13:25:01.088Z,13
2018-11-13T13:26:01.164Z,12
2018-11-13T13:27:01.092Z,15
2018-11-13T13:29:06.094Z,16
2018-11-13T13:30:01.124Z,17
2018-11-13T13:32:01.099Z,15
2018-11-13T13:34:01.089Z,16
2018-11-13T13:35:01.091Z,18
2018-11-13T13:36:01.904Z,17
2018-11-13T13:37:01.091Z,18
2018-11-13T13:38:01.091Z,17
2018-11-13T13:39:01.091Z,15
2018-11-13T13:40:01.095Z,14
2018-11-13T13:42:01.124Z,16
2018-11-13T13:43:01.093Z,18
2018-11-13T13:44:01.128Z,19
2018-11-13T13:45:01.096Z,20
2018-11-13T13:46:01.104Z,18
2018-11-13T13:47:01.104Z,17
2018-11-13T13:48:01.093Z,16
2018-11-13T13:49:02.194Z,15
2018-11-13T13:51:01.099Z,17
2018-11-13T13:52:01.094Z,15
2018-11-13T13:54:01.275Z,16
2018-11-13T13:55:01.096Z,15
2018-11-13T13:56:01.094Z,14
2018-11-13T13:57:01.097Z,15
2018-11-13T13:58:01.099Z,14
2018-11-13T13:59:01.122Z,15
2018-11-13T14:00:01.333Z,15
2018-11-13T14:02:01.156Z,16
2018-11-13T14:04:01.093Z,15
2018-11-13T14:05:01.100Z,17
2018-11-13T14:07:01.137Z,18
2018-11-13T14:08:01.097Z,17
2018-11-13T14:09:01.123Z,16
2018-11-13T14:10:01.099Z,14
2018-11-13T14:11:01.096Z,15
2018-11-13T14:12:01.142Z,14
2018-11-13T14:15:01.166Z,14
2018-11-13T14:18:01.094Z,15
2018-11-13T14:20:01.158Z,16
2018-11-13T14:21:01.160Z,15
2018-11-13T14:24:01.099Z,16
2018-11-13T14:25:01.102Z,17
2018-11-13T14:26:01.096Z,18
2018-11-13T14:27:01.137Z,17
2018-11-13T14:29:01.166Z,16
2018-11-13T14:30:01.109Z,16
2018-11-13T14:31:01.102Z,15
2018-11-13T14:33:01.142Z,16
2018-11-13T14:34:01.101Z,18
2018-11-13T14:35:01.099Z,17
2018-11-13T14:37:01.136Z,19
2018-11-13T14:38:01.103Z,17
2018-11-13T14:39:01.099Z,16
2018-11-13T14:40:01.099Z,15
2018-11-13T14:42:01.152Z,12
2018-11-13T14:43:01.099Z,13
2018-11-13T14:45:01.152Z,14
2018-11-13T14:46:01.104Z,15
2018-11-13T14:48:01.085Z,16
2018-11-13T14:51:01.085Z,17
2018-11-13T14:54:01.092Z,16
2018-11-13T14:55:01.085Z,15
2018-11-13T14:56:01.085Z,14
2018-11-13T15:00:01.154Z,15
2018-11-13T15:01:01.087Z,17
2018-11-13T15:03:01.086Z,16
2018-11-13T15:04:01.088Z,18
2018-11-13T15:05:01.122Z,16
2018-11-13T15:06:01.090Z,14
2018-11-13T15:07:01.093Z,13
2018-11-13T15:08:01.261Z,14
2018-11-13T15:09:01.090Z,13
2018-11-13T15:10:01.138Z,15
2018-11-13T15:11:01.092Z,16
2018-11-13T15:13:01.122Z,17
2018-11-13T15:15:01.152Z,16
2018-11-13T15:17:02.120Z,17
2018-11-13T15:18:01.088Z,16
2018-11-13T15:24:01.152Z,19
2018-11-13T15:25:01.092Z,20
2018-11-13T15:26:01.089Z,19
2018-11-13T15:28:01.096Z,21
2018-11-13T15:29:01.091Z,18
2018-11-13T15:30:01.094Z,16
2018-11-13T15:31:01.203Z,18
2018-11-13T15:33:01.091Z,17
2018-11-13T15:34:01.093Z,18
2018-11-13T15:35:01.088Z,19
2018-11-13T15:36:01.089Z,18
2018-11-13T15:37:01.089Z,17
2018-11-13T15:38:01.098Z,18
2018-11-13T15:39:01.092Z,17
2018-11-13T15:40:01.093Z,16
2018-11-13T15:41:01.089Z,15
2018-11-13T15:42:01.091Z,17
2018-11-13T15:44:01.091Z,18
2018-11-13T15:45:01.137Z,19
2018-11-13T15:48:01.128Z,18
2018-11-13T15:49:01.092Z,19
2018-11-13T15:50:01.090Z,20
2018-11-13T15:52:01.108Z,19
2018-11-13T15:54:01.089Z,17
2018-11-13T15:55:01.094Z,15
2018-11-13T15:56:01.144Z,17
2018-11-13T15:58:01.130Z,16
2018-11-13T15:59:01.091Z,17
2018-11-13T16:00:01.094Z,17
2018-11-13T16:01:01.096Z,16
2018-11-13T16:03:01.122Z,17
2018-11-13T16:06:01.125Z,16
2018-11-13T16:11:01.099Z,18
2018-11-13T16:12:01.093Z,19
2018-11-13T16:14:01.125Z,20
2018-11-13T16:15:01.115Z,18
2018-11-13T16:16:01.132Z,17
2018-11-13T16:17:01.095Z,18
2018-11-13T16:18:01.096Z,17
2018-11-13T16:20:01.163Z,18
2018-11-13T16:22:01.100Z,17
2018-11-13T16:24:01.094Z,15
2018-11-13T16:25:01.099Z,17
2018-11-13T16:26:01.134Z,18
2018-11-13T16:28:01.099Z,19
2018-11-13T16:29:01.175Z,20
2018-11-13T16:30:01.164Z,19
2018-11-13T16:31:01.376Z,17
2018-11-13T16:33:01.093Z,19
2018-11-13T16:34:01.095Z,18
2018-11-13T16:41:01.189Z,19
2018-11-13T16:42:01.218Z,17
2018-11-13T16:43:01.099Z,15
2018-11-13T16:44:01.095Z,14
2018-11-13T16:45:01.104Z,15
2018-11-13T16:46:01.127Z,16
2018-11-13T16:47:01.093Z,18
2018-11-13T16:50:01.163Z,16
2018-11-13T16:51:01.126Z,14
2018-11-13T16:52:01.097Z,13
2018-11-13T16:53:01.099Z,14
2018-11-13T16:54:01.121Z,15
2018-11-13T16:55:01.100Z,16
2018-11-13T16:57:01.145Z,17
2018-11-13T16:58:01.248Z,15
2018-11-13T16:59:01.096Z,16
2018-11-13T17:00:01.193Z,18
2018-11-13T17:01:01.163Z,19
2018-11-13T17:02:01.094Z,20
2018-11-13T17:05:01.272Z,17
2018-11-13T17:07:01.163Z,16
2018-11-13T17:08:01.092Z,17
2018-11-13T17:09:01.115Z,15
2018-11-13T17:11:01.163Z,14
2018-11-13T17:12:01.240Z,13
2018-11-13T17:14:01.114Z,14
2018-11-13T17:15:01.121Z,15
2018-11-13T17:17:01.127Z,16
2018-11-13T17:18:01.094Z,18
2018-11-13T17:19:01.093Z,17
2018-11-13T17:20:01.094Z,18
2018-11-13T17:21:01.130Z,20
2018-11-13T17:23:01.094Z,17
2018-11-13T17:24:01.101Z,19
2018-11-13T17:26:01.181Z,17
2018-11-13T17:28:01.098Z,18
2018-11-13T17:29:01.093Z,17
2018-11-13T17:30:01.210Z,16
2018-11-13T17:32:01.137Z,17
2018-11-13T17:33:01.103Z,16
2018-11-13T17:34:01.098Z,15
2018-11-13T17:35:01.097Z,17
2018-11-13T17:37:01.130Z,16
2018-11-13T17:39:01.098Z,18
2018-11-13T17:40:01.098Z,16
2018-11-13T17:41:01.127Z,17
2018-11-13T17:43:01.111Z,19
2018-11-13T17:44:01.114Z,21
2018-11-13T17:45:01.084Z,20
2018-11-13T17:47:01.119Z,18
2018-11-13T17:48:01.078Z,15
2018-11-13T17:49:01.292Z,13
2018-11-13T17:51:01.149Z,15
2018-11-13T17:52:02.067Z,16
2018-11-13T17:53:01.114Z,18
2018-11-13T17:54:01.086Z,19
2018-11-13T17:55:01.081Z,18
2018-11-13T17:56:01.081Z,16
2018-11-13T17:58:01.114Z,14
2018-11-13T17:59:01.088Z,13
2018-11-13T18:00:01.192Z,13
2018-11-13T18:03:01.114Z,15
2018-11-13T18:04:01.083Z,17
2018-11-13T18:05:01.784Z,16
2018-11-13T18:08:01.125Z,15
2018-11-13T18:09:01.090Z,16
2018-11-13T18:10:01.088Z,17
2018-11-13T18:11:01.140Z,18
2018-11-13T18:12:01.089Z,17
2018-11-13T18:14:02.181Z,15
2018-11-13T18:15:01.095Z,16
2018-11-13T18:17:01.121Z,17
2018-11-13T18:18:01.120Z,16
2018-11-13T18:21:01.095Z,17
2018-11-13T18:22:01.323Z,15
2018-11-13T18:23:01.125Z,16
2018-11-13T18:25:01.089Z,14
2018-11-13T18:29:01.124Z,13
2018-11-13T18:30:01.097Z,15
2018-11-13T18:31:01.101Z,14
2018-11-13T18:32:01.096Z,15
2018-11-13T18:33:01.127Z,14
2018-11-13T18:34:01.091Z,17
2018-11-13T18:36:01.097Z,18
2018-11-13T18:37:01.090Z,16
2018-11-13T18:38:01.168Z,17
2018-11-13T18:45:01.335Z,17
2018-11-13T18:46:01.091Z,16
2018-11-13T18:47:01.091Z,17
2018-11-13T18:49:01.128Z,16
2018-11-13T18:50:01.123Z,18
2018-11-13T18:51:01.112Z,19
2018-11-13T18:53:01.125Z,18
2018-11-13T18:55:01.093Z,16
2018-11-13T18:56:01.094Z,15
2018-11-13T18:57:01.091Z,12
2018-11-13T18:58:01.122Z,13
2018-11-13T18:59:01.192Z,14
2018-11-13T19:00:01.097Z,14
2018-11-13T19:01:01.126Z,15
2018-11-13T19:02:01.091Z,16
2018-11-13T19:03:01.132Z,15
2018-11-13T19:04:01.092Z,17
2018-11-13T19:05:01.167Z,18
2018-11-13T19:06:01.093Z,16
2018-11-13T19:09:01.309Z,14
2018-11-13T19:10:01.094Z,13
2018-11-13T19:11:01.174Z,14
2018-11-13T19:12:01.145Z,16
2018-11-13T19:13:01.104Z,14
2018-11-13T19:14:01.136Z,15
2018-11-13T19:15:01.131Z,14
2018-11-13T19:17:01.173Z,16
2018-11-13T19:18:01.159Z,17
2018-11-13T19:19:01.130Z,16
2018-11-13T19:21:01.175Z,19
2018-11-13T19:22:01.096Z,17
2018-11-13T19:23:01.095Z,16
2018-11-13T19:24:01.283Z,15
2018-11-13T19:25:01.099Z,16
2018-11-13T19:27:01.098Z,17
2018-11-13T19:28:01.098Z,18
2018-11-13T19:29:01.248Z,17
2018-11-13T19:30:01.109Z,19
2018-11-13T19:32:01.100Z,18
2018-11-13T19:34:01.137Z,20
2018-11-13T19:36:01.141Z,19
2018-11-13T19:39:01.139Z,18
2018-11-13T19:40:01.561Z,16
2018-11-13T19:44:01.135Z,15
2018-11-13T19:45:01.157Z,14
2018-11-13T19:47:01.193Z,15
2018-11-13T19:48:01.094Z,16
2018-11-13T19:49:01.137Z,17
2018-11-13T19:52:02.135Z,15
2018-11-13T19:53:01.097Z,18
2018-11-13T19:54:01.654Z,17
2018-11-13T19:55:01.098Z,18
2018-11-13T19:57:01.133Z,19
2018-11-13T19:58:01.187Z,17
2018-11-13T19:59:01.093Z,18
2018-11-13T20:00:01.102Z,18
2018-11-13T20:02:01.228Z,17
2018-11-13T20:04:01.199Z,18
2018-11-13T20:05:01.737Z,20
2018-11-13T20:06:01.125Z,18
2018-11-13T20:07:01.095Z,16
2018-11-13T20:09:01.734Z,15
2018-11-13T20:10:01.095Z,13
2018-11-13T20:11:01.138Z,15
2018-11-13T20:13:01.097Z,16
2018-11-13T20:14:01.095Z,15
2018-11-13T20:15:01.097Z,16
2018-11-13T20:17:01.094Z,17
2018-11-13T20:18:01.094Z,16
2018-11-13T20:19:01.094Z,18
2018-11-13T20:20:01.097Z,16
2018-11-13T20:21:01.189Z,17
2018-11-13T20:22:01.094Z,18
2018-11-13T20:25:01.097Z,19
2018-11-13T20:28:01.100Z,18
2018-11-13T20:29:01.098Z,20
2018-11-13T20:30:01.094Z,19
2018-11-13T20:33:01.093Z,20
2018-11-13T20:34:01.092Z,19
2018-11-13T20:35:01.095Z,18
2018-11-13T20:36:01.135Z,17
2018-11-13T20:37:01.097Z,16